Time;durP1;ratioP1;P1;durP2;ratioP2;P2;SDS_P1;SDS_P2;PMS_P1;PMS_P2;Temp;Humidity;BMP_temperature;BMP_pressure;BME280_temperature;BME280_humidity;BME280_pressure;Samples;Min_cycle;Max_cycle;Signal;HPM_P1;HPM_P2
2021/03/28 00:02:07;;;;;;;4.33;2.40;;;;;;;5.87;63.91;100173.03;5112442;27;42691;-74
2021/03/28 00:04:46;;;;;;;5.63;2.23;;;;;;;5.87;63.72;100156.41;5097518;27;40213;-73
2021/03/28 00:07:16;;;;;;;4.67;3.40;;;;;;;5.99;64.28;100167.53;5114936;27;41837;-74
2021/03/28 00:09:48;;;;;;;4.00;2.70;;;;;;;6.05;63.73;100166.56;5114434;27;42612;-75
2021/03/28 00:12:32;;;;;;;5.00;2.77;;;;;;;6.10;63.63;100170.78;5114741;27;41497;-76
2021/03/28 00:15:18;;;;;;;3.90;2.30;;;;;;;6.18;63.14;100173.25;5115531;27;39872;-74
2021/03/28 00:17:49;;;;;;;4.80;2.40;;;;;;;6.20;62.98;100170.56;5115356;27;40561;-75
2021/03/28 00:20:31;;;;;;;4.93;2.70;;;;;;;6.15;63.03;100159.31;5118672;27;42516;-76
2021/03/28 00:23:08;;;;;;;3.20;2.33;;;;;;;6.09;62.97;100150.66;5094783;28;41112;-74
2021/03/28 00:25:41;;;;;;;2.90;2.20;;;;;;;6.21;62.75;100165.28;5111931;28;40647;-74
2021/03/28 00:28:20;;;;;;;4.80;2.50;;;;;;;6.24;63.21;100164.34;5111663;28;41653;-74
2021/03/28 00:30:48;;;;;;;3.30;2.63;;;;;;;6.08;62.89;100156.81;5112442;28;42642;-73
2021/03/28 00:33:23;;;;;;;3.37;2.63;;;;;;;6.13;63.07;100175.13;5077402;28;41164;-75
2021/03/28 00:35:55;;;;;;;4.20;2.80;;;;;;;6.08;62.98;100172.59;5112074;28;39650;-74
2021/03/28 00:38:28;;;;;;;4.13;2.60;;;;;;;6.06;62.95;100178.78;5093502;28;42149;-74
2021/03/28 00:41:14;;;;;;;5.10;2.53;;;;;;;6.01;63.44;100165.75;5110994;27;42896;-75
2021/03/28 00:43:47;;;;;;;5.30;2.53;;;;;;;5.96;63.21;100167.59;5093524;28;42229;-74
2021/03/28 00:46:34;;;;;;;4.40;2.33;;;;;;;5.91;63.10;100164.25;5111724;28;40289;-74
2021/03/28 00:49:02;;;;;;;5.13;2.80;;;;;;;6.01;63.02;100178.91;5093352;28;42346;-74
2021/03/28 00:51:32;;;;;;;4.03;2.43;;;;;;;6.03;62.85;100185.00;5093309;28;42504;-74
2021/03/28 00:54:11;;;;;;;3.43;2.20;;;;;;;6.03;62.79;100185.00;5093251;28;42893;-75
2021/03/28 00:56:40;;;;;;;2.77;2.00;;;;;;;6.05;62.86;100180.56;5093592;28;39836;-74
2021/03/28 00:59:18;;;;;;;5.43;2.43;;;;;;;6.07;62.67;100181.38;5077075;28;41913;-75
2021/03/28 01:02:14;;;;;;;4.40;2.53;;;;;;;6.06;62.63;100174.38;5058659;28;42653;-74
2021/03/28 01:05:15;;;;;;;6.93;3.37;;;;;;;6.05;63.43;100172.69;5077076;28;42457;-74
2021/03/28 01:07:56;;;;;;;4.63;3.07;;;;;;;6.02;62.89;100172.75;5111587;28;41579;-75
2021/03/28 01:11:11;;;;;;;5.13;2.90;;;;;;;6.02;62.86;100177.13;5077231;28;41905;-75
2021/03/28 01:14:17;;;;;;;6.40;3.20;;;;;;;5.99;63.01;100172.81;5093727;28;42097;-75
2021/03/28 01:17:11;;;;;;;8.10;4.20;;;;;;;5.98;62.90;100168.44;5093657;28;42424;-75
2021/03/28 01:20:12;;;;;;;5.07;2.90;;;;;;;5.98;62.78;100171.06;5092800;28;39919;-75
2021/03/28 01:22:53;;;;;;;6.13;3.30;;;;;;;5.99;63.46;100171.94;5085630;28;41134;-75
2021/03/28 01:25:53;;;;;;;5.00;3.53;;;;;;;6.01;63.77;100165.75;5110641;28;43090;-75
2021/03/28 01:28:25;;;;;;;5.73;3.77;;;;;;;6.02;63.64;100164.00;5055122;28;41179;-76
2021/03/28 01:30:55;;;;;;;4.73;2.63;;;;;;;6.04;63.84;100152.53;5093870;28;40117;-74
2021/03/28 01:33:29;;;;;;;6.10;2.47;;;;;;;6.10;64.29;100149.75;5110579;28;41752;-74
2021/03/28 01:36:04;;;;;;;5.67;2.47;;;;;;;6.02;63.86;100128.03;5076745;28;42040;-75
2021/03/28 01:38:37;;;;;;;7.40;2.50;;;;;;;6.16;63.76;100148.75;5092589;28;41960;-75
2021/03/28 01:41:10;;;;;;;2.83;2.00;;;;;;;6.25;63.86;100164.31;5093115;28;39961;-75
2021/03/28 01:43:50;;;;;;;7.33;3.17;;;;;;;6.32;63.77;100163.25;5093666;28;40640;-75
2021/03/28 01:46:31;;;;;;;6.40;3.63;;;;;;;6.33;63.58;100166.75;5110768;28;42434;-75
2021/03/28 01:49:00;;;;;;;6.27;2.90;;;;;;;6.29;63.50;100146.69;5092536;28;42029;-74
2021/03/28 01:51:42;;;;;;;7.07;2.80;;;;;;;6.35;63.72;100150.03;5092876;28;39070;-74
2021/03/28 01:54:17;;;;;;;4.30;2.30;;;;;;;6.40;64.50;100139.41;5110334;28;41750;-74
2021/03/28 01:56:52;;;;;;;8.20;2.90;;;;;;;6.44;64.23;100155.03;5093411;28;43106;-75
2021/03/28 01:59:34;;;;;;;3.50;2.50;;;;;;;6.49;64.02;100155.81;5110214;28;42289;-74
2021/03/28 02:02:10;;;;;;;4.60;3.80;;;;;;;6.53;64.09;100153.97;5093414;28;39795;-73
2021/03/28 02:04:48;;;;;;;4.77;3.07;;;;;;;6.55;63.64;100152.16;5093449;28;41137;-74
2021/03/28 02:07:25;;;;;;;7.80;5.50;;;;;;;6.48;64.13;100140.06;5110674;28;43577;-74
2021/03/28 02:10:06;;;;;;;8.00;5.27;;;;;;;6.49;64.59;100147.03;5110532;28;42208;-76
2021/03/28 02:12:41;;;;;;;9.47;4.30;;;;;;;6.50;64.95;100154.03;5110344;28;40435;-76
2021/03/28 02:15:37;;;;;;;6.10;3.60;;;;;;;6.54;65.28;100145.19;5091965;28;42506;-74
2021/03/28 02:18:21;;;;;;;5.03;3.00;;;;;;;6.59;64.98;100138.00;5091679;28;43403;-74
2021/03/28 02:20:58;;;;;;;3.83;2.63;;;;;;;6.64;64.60;100141.41;5109778;28;42314;-75
2021/03/28 02:23:40;;;;;;;5.50;2.70;;;;;;;6.61;64.23;100133.56;5091696;28;40664;-75
2021/03/28 02:26:19;;;;;;;7.40;3.30;;;;;;;6.64;64.11;100136.13;5092750;28;41596;-75
2021/03/28 02:28:57;;;;;;;5.43;3.30;;;;;;;6.68;63.92;100145.66;5110340;28;43429;-75
2021/03/28 02:31:33;;;;;;;4.50;3.20;;;;;;;6.36;63.68;100093.00;5092114;28;42703;-75
2021/03/28 02:34:14;;;;;;;5.93;3.70;;;;;;;6.68;63.57;100150.06;5091915;28;40111;-75
2021/03/28 02:36:47;;;;;;;4.13;3.43;;;;;;;6.71;63.61;100156.13;5110287;28;41736;-75
2021/03/28 02:39:24;;;;;;;6.53;3.63;;;;;;;6.70;63.59;100151.75;5075729;28;41800;-76
2021/03/28 02:42:07;;;;;;;7.80;4.70;;;;;;;6.69;63.75;100160.56;5110006;28;42964;-74
2021/03/28 02:44:49;;;;;;;5.50;3.80;;;;;;;6.69;63.26;100170.22;5092144;28;39950;-75
2021/03/28 02:47:30;;;;;;;7.40;4.50;;;;;;;6.63;63.32;100171.25;5109853;28;40937;-76
2021/03/28 02:50:14;;;;;;;5.13;3.80;;;;;;;6.67;63.87;100157.13;5092654;28;41736;-75
2021/03/28 02:53:10;;;;;;;8.77;4.90;;;;;;;6.62;64.65;100159.00;5109512;28;42320;-74
2021/03/28 02:56:10;;;;;;;8.77;3.80;;;;;;;6.62;64.23;100164.25;5089710;28;41038;-74
2021/03/28 02:59:06;;;;;;;5.13;3.50;;;;;;;6.60;64.19;100160.78;5092702;28;42099;-75
2021/03/28 03:01:53;;;;;;;8.47;4.50;;;;;;;6.57;64.05;100154.75;5107222;28;43220;-75
2021/03/28 03:04:58;;;;;;;4.50;3.40;;;;;;;6.52;64.18;100146.13;5077826;28;42581;-76
2021/03/28 03:07:52;;;;;;;6.20;4.00;;;;;;;6.49;65.42;100136.53;5095481;28;40399;-76
2021/03/28 03:10:33;;;;;;;6.00;4.07;;;;;;;6.49;64.63;100141.78;5079115;28;40905;-75
2021/03/28 03:13:09;;;;;;;5.90;3.97;;;;;;;6.48;64.64;100148.81;5094553;28;42423;-75
2021/03/28 03:15:41;;;;;;;5.83;3.60;;;;;;;6.53;64.63;100164.50;5096133;28;41677;-75
2021/03/28 03:18:53;;;;;;;7.13;3.60;;;;;;;6.54;64.55;100147.81;5113692;28;20260;-75
2021/03/28 03:22:02;;;;;;;6.07;3.70;;;;;;;6.50;65.64;100148.78;5058589;28;41560;-74
2021/03/28 03:25:24;;;;;;;6.10;3.50;;;;;;;6.53;65.42;100146.06;5058341;28;42018;-74
2021/03/28 03:28:26;;;;;;;5.57;3.70;;;;;;;6.57;65.40;100158.22;5075303;28;41870;-74
2021/03/28 03:31:15;;;;;;;5.50;3.87;;;;;;;6.58;65.30;100152.06;5054427;28;39702;-75
2021/03/28 03:34:18;;;;;;;7.47;4.10;;;;;;;6.60;65.17;100155.53;5092423;28;41347;-75
2021/03/28 03:37:05;;;;;;;6.10;3.73;;;;;;;6.61;64.98;100159.91;5058231;28;42024;-74
2021/03/28 03:39:59;;;;;;;4.47;3.17;;;;;;;6.66;65.06;100163.28;5075579;28;41442;-75
2021/03/28 03:43:07;;;;;;;7.53;3.83;;;;;;;6.69;64.94;100171.09;5074835;28;39706;-75
2021/03/28 03:46:04;;;;;;;9.07;3.67;;;;;;;6.71;65.15;100174.53;5029654;28;42176;-75
2021/03/28 03:49:00;;;;;;;4.83;2.97;;;;;;;6.71;64.98;100165.78;5082867;28;42515;-75
2021/03/28 03:51:58;;;;;;;5.17;3.40;;;;;;;6.79;65.17;100169.09;5074030;28;42890;-75
2021/03/28 03:54:37;;;;;;;4.77;3.20;;;;;;;6.79;65.25;100166.47;5092581;28;40883;-76
2021/03/28 03:57:15;;;;;;;4.87;3.13;;;;;;;6.84;65.04;100175.94;5074718;28;41552;-75
2021/03/28 03:59:55;;;;;;;6.30;3.33;;;;;;;6.87;65.20;100163.63;5073966;28;42646;-75
2021/03/28 04:02:27;;;;;;;6.80;3.20;;;;;;;6.84;65.18;100154.88;5074470;28;41945;-75
2021/03/28 04:05:10;;;;;;;8.03;3.67;;;;;;;6.91;65.61;100165.28;5074236;28;40792;-75
2021/03/28 04:07:59;;;;;;;6.17;3.00;;;;;;;6.90;65.48;100164.41;5074870;28;41587;-75
2021/03/28 04:10:34;;;;;;;7.33;3.53;;;;;;;6.87;65.85;100164.47;5074845;28;42742;-75
2021/03/28 04:13:33;;;;;;;8.43;3.87;;;;;;;6.87;65.57;100166.25;5057297;28;41311;-75
2021/03/28 04:16:12;;;;;;;5.03;3.30;;;;;;;6.88;65.57;100165.34;5072800;28;40167;-75
2021/03/28 04:19:14;;;;;;;7.40;3.90;;;;;;;6.83;66.17;100163.69;5091089;28;41607;-76
2021/03/28 04:21:59;;;;;;;10.23;3.80;;;;;;;6.85;65.69;100156.63;5093755;28;43450;-75
2021/03/28 04:24:41;;;;;;;7.40;3.90;;;;;;;6.87;65.83;100160.97;5112439;28;41933;-75
2021/03/28 04:27:32;;;;;;;9.70;3.97;;;;;;;6.94;65.80;100173.06;5094019;28;40707;-75
2021/03/28 04:29:59;;;;;;;8.00;3.60;;;;;;;6.91;65.65;100165.28;5108979;28;42429;-75
2021/03/28 04:32:58;;;;;;;5.27;3.17;;;;;;;6.87;65.67;100160.97;5093507;28;43359;-76
2021/03/28 04:35:48;;;;;;;10.60;3.40;;;;;;;6.76;65.83;100154.25;5049055;28;42727;-75
2021/03/28 04:38:35;;;;;;;7.93;3.00;;;;;;;6.66;65.75;100155.38;5077422;28;38674;-75
2021/03/28 04:41:28;;;;;;;12.17;3.23;;;;;;;6.50;65.81;100148.78;5111803;28;41604;-77
2021/03/28 04:44:29;;;;;;;7.23;3.47;;;;;;;6.47;65.73;100164.63;5093657;28;43316;-75
2021/03/28 04:47:30;;;;;;;6.73;3.10;;;;;;;6.37;65.72;100164.00;5094140;28;42077;-75
2021/03/28 04:50:15;;;;;;;4.33;2.70;;;;;;;6.31;65.86;100169.41;5111498;28;40489;-75
2021/03/28 04:53:15;;;;;;;5.70;2.80;;;;;;;6.31;65.73;100176.44;5093670;28;41766;-75
2021/03/28 04:56:17;;;;;;;5.87;2.50;;;;;;;6.33;65.71;100183.38;5077666;28;42677;-75
2021/03/28 04:59:21;;;;;;;4.70;2.87;;;;;;;6.38;65.16;100184.16;5111544;28;42927;-75
2021/03/28 05:02:05;;;;;;;4.80;3.30;;;;;;;6.37;64.94;100178.94;5095582;28;39835;-75
2021/03/28 05:04:58;;;;;;;5.43;3.47;;;;;;;6.52;64.78;100199.63;5093284;28;41279;-75
2021/03/28 05:07:49;;;;;;;4.97;4.30;;;;;;;6.59;64.76;100195.03;5076502;28;41995;-75
2021/03/28 05:10:51;;;;;;;9.17;4.73;;;;;;;6.60;64.68;100181.84;5094167;28;41454;-75
2021/03/28 05:13:58;;;;;;;6.33;4.40;;;;;;;6.66;65.40;100189.63;5111025;28;39600;-75
2021/03/28 05:17:02;;;;;;;7.43;4.27;;;;;;;6.70;65.23;100187.75;5052582;28;42111;-75
2021/03/28 05:19:56;;;;;;;6.27;3.33;;;;;;;6.76;65.08;100183.19;5093356;28;43495;-75
2021/03/28 05:23:00;;;;;;;6.13;3.60;;;;;;;6.83;64.78;100191.78;5077053;28;42062;-74
2021/03/28 05:25:47;;;;;;;6.50;3.23;;;;;;;6.88;64.68;100184.66;5111158;28;39714;-76
2021/03/28 05:28:44;;;;;;;7.13;2.77;;;;;;;6.96;64.98;100189.69;5110583;28;42175;-76
2021/03/28 05:31:46;;;;;;;5.13;2.83;;;;;;;7.04;64.65;100187.75;5077045;28;42759;-75
2021/03/28 05:34:54;;;;;;;7.47;3.10;;;;;;;7.09;64.89;100185.84;5110821;28;42981;-74
2021/03/28 05:38:06;;;;;;;6.97;3.03;;;;;;;7.18;64.46;100186.44;5071166;28;39805;-75
2021/03/28 05:41:10;;;;;;;5.83;2.70;;;;;;;7.22;64.22;100182.81;5041448;28;40661;-75
2021/03/28 05:44:07;;;;;;;8.33;3.13;;;;;;;7.34;64.14;100188.66;5077052;27;41470;-74
2021/03/28 05:46:47;;;;;;;4.63;2.57;;;;;;;7.40;63.74;100193.78;5111068;28;42901;-75
2021/03/28 05:49:36;;;;;;;6.67;2.60;;;;;;;7.47;63.71;100196.19;5110180;28;40937;-74
2021/03/28 05:52:33;;;;;;;6.40;2.53;;;;;;;7.53;63.29;100198.66;5076704;28;40756;-74
2021/03/28 05:55:34;;;;;;;10.03;3.07;;;;;;;7.61;62.94;100205.47;5104137;28;43297;-75
2021/03/28 05:58:48;;;;;;;5.90;2.60;;;;;;;7.63;63.19;100208.94;5125611;28;42497;-75
2021/03/28 06:01:49;;;;;;;6.40;2.23;;;;;;;7.73;63.01;100220.94;5092333;28;39760;-75
2021/03/28 06:05:05;;;;;;;8.97;3.13;;;;;;;7.79;62.77;100220.78;5108491;28;42099;-75
2021/03/28 06:08:08;;;;;;;5.93;2.70;;;;;;;7.87;62.70;100229.31;5115845;28;43070;-75
2021/03/28 06:11:27;;;;;;;6.87;2.60;;;;;;;7.99;62.28;100223.66;5110034;28;41720;-75
2021/03/28 06:14:34;;;;;;;4.93;2.50;;;;;;;8.17;62.00;100238.06;5105415;28;39938;-75
2021/03/28 06:17:16;;;;;;;5.77;2.53;;;;;;;8.33;61.67;100243.75;5084792;28;41675;-75
2021/03/28 06:20:25;;;;;;;5.03;2.07;;;;;;;8.54;61.71;100243.94;5088273;28;41717;-75
2021/03/28 06:23:32;;;;;;;6.83;2.37;;;;;;;8.71;61.38;100256.63;5106547;28;42502;-76
2021/03/28 06:26:28;;;;;;;7.50;2.87;;;;;;;8.84;61.26;100252.66;5088073;28;39595;-77
2021/03/28 06:29:41;;;;;;;4.93;2.93;;;;;;;8.95;60.97;100255.81;5074997;28;40736;-75
2021/03/28 06:32:50;;;;;;;6.33;2.70;;;;;;;9.02;60.57;100255.63;5020093;28;42582;-76
2021/03/28 06:35:58;;;;;;;7.33;2.87;;;;;;;9.09;60.13;100251.84;5085073;28;41665;-76
2021/03/28 06:38:59;;;;;;;3.47;2.30;;;;;;;9.21;59.96;100256.69;5086225;28;39883;-75
2021/03/28 06:41:49;;;;;;;6.20;3.03;;;;;;;9.33;59.43;100264.19;5106553;28;41506;-75
2021/03/28 06:44:40;;;;;;;5.90;3.17;;;;;;;9.48;58.53;100266.31;5104246;28;43232;-77
2021/03/28 06:47:40;;;;;;;9.87;4.60;;;;;;;9.77;58.20;100270.53;5084688;28;42265;-75
2021/03/28 06:50:30;;;;;;;7.00;2.97;;;;;;;9.98;57.20;100276.84;5088613;28;40694;-75
2021/03/28 06:53:11;;;;;;;4.57;2.43;;;;;;;10.10;56.11;100281.66;5105029;28;42173;-75
2021/03/28 06:55:41;;;;;;;6.37;2.90;;;;;;;10.25;55.70;100275.81;5106842;28;42713;-76
2021/03/28 06:58:47;;;;;;;8.97;2.80;;;;;;;10.42;55.53;100281.31;5087333;28;41908;-76
2021/03/28 07:01:59;;;;;;;5.63;2.53;;;;;;;10.64;55.74;100281.31;5091982;28;38989;-76
2021/03/28 07:05:23;;;;;;;7.17;2.57;;;;;;;10.80;54.20;100294.81;5069074;28;41459;-76
2021/03/28 07:08:05;;;;;;;5.30;1.97;;;;;;;10.95;54.06;100304.81;5103639;28;42421;-75
2021/03/28 07:10:42;;;;;;;5.70;2.30;;;;;;;11.19;53.52;100312.66;5101871;28;42880;-75
2021/03/28 07:13:36;;;;;;;4.70;2.23;;;;;;;11.35;52.58;100314.63;5085947;28;40058;-75
2021/03/28 07:16:41;;;;;;;5.47;2.40;;;;;;;11.50;52.32;100307.78;5083155;28;40892;-76
2021/03/28 07:19:48;;;;;;;4.80;2.23;;;;;;;11.67;51.50;100310.56;5087669;28;43197;-75
2021/03/28 07:22:42;;;;;;;9.00;2.43;;;;;;;11.80;51.17;100306.47;5084935;28;42066;-76
2021/03/28 07:25:48;;;;;;;7.47;2.70;;;;;;;11.90;51.19;100308.72;5067187;28;40211;-75
2021/03/28 07:28:55;;;;;;;6.37;2.43;;;;;;;12.06;51.11;100315.94;5086257;28;41691;-76
2021/03/28 07:31:43;;;;;;;7.13;3.07;;;;;;;12.16;50.25;100329.66;5069583;28;42665;-76
2021/03/28 07:34:51;;;;;;;7.13;2.53;;;;;;;12.25;50.48;100321.25;5066742;28;41368;-75
2021/03/28 07:38:13;;;;;;;4.60;2.20;;;;;;;12.23;49.51;100331.97;5066237;28;38885;-74
2021/03/28 07:41:17;;;;;;;5.40;2.53;;;;;;;12.10;49.54;100345.88;5056152;28;41089;-76
2021/03/28 07:44:22;;;;;;;7.23;2.50;;;;;;;11.93;50.18;100327.19;5087936;28;41875;-76
2021/03/28 07:47:31;;;;;;;7.30;2.13;;;;;;;11.89;49.55;100321.13;5105836;28;42039;-77
2021/03/28 07:50:43;;;;;;;7.97;2.33;;;;;;;12.46;49.15;100333.56;5104268;27;40899;-75
2021/03/28 07:53:42;;;;;;;8.70;2.40;;;;;;;13.87;46.61;100352.28;5110099;28;42735;-77
2021/03/28 07:56:29;;;;;;;7.93;2.70;;;;;;;14.58;44.56;100376.06;5107378;28;42281;-78
2021/03/28 07:59:09;;;;;;;7.40;2.57;;;;;;;14.62;44.11;100377.59;5090850;28;42924;-77
2021/03/28 08:02:03;;;;;;;7.77;2.50;;;;;;;14.60;43.87;100377.69;5075778;28;38859;-77
2021/03/28 08:04:53;;;;;;;4.37;2.33;;;;;;;14.61;43.89;100384.75;5091070;28;41446;-74
2021/03/28 08:07:33;;;;;;;6.53;3.07;;;;;;;14.75;43.66;100365.31;5092462;28;42564;-74
2021/03/28 08:10:41;;;;;;;7.13;2.87;;;;;;;15.87;42.64;100391.78;5112677;28;42384;-74
2021/03/28 08:13:35;;;;;;;6.60;2.23;;;;;;;17.72;39.06;100414.78;5111599;28;40552;-75
2021/03/28 08:16:28;;;;;;;6.53;2.83;;;;;;;18.52;37.69;100420.88;5092028;28;41738;-74
2021/03/28 08:19:27;;;;;;;7.67;2.70;;;;;;;19.83;34.84;100432.78;5073582;28;43238;-75
2021/03/28 08:22:04;;;;;;;6.00;2.93;;;;;;;20.22;32.73;100431.56;5058822;28;41641;-76
2021/03/28 08:25:00;;;;;;;7.17;2.80;;;;;;;20.48;34.33;100416.97;5091781;28;39941;-76
2021/03/28 08:28:09;;;;;;;8.97;3.20;;;;;;;20.53;33.30;100420.16;5073778;28;41828;-77
2021/03/28 08:30:48;;;;;;;9.07;3.17;;;;;;;20.41;32.57;100432.72;5057624;28;41989;-75
2021/03/28 08:33:41;;;;;;;6.77;2.70;;;;;;;20.78;32.57;100428.00;5081518;28;42387;-76
2021/03/28 08:36:22;;;;;;;8.17;2.70;;;;;;;20.99;31.72;100440.72;5112220;28;40393;-75
2021/03/28 08:39:12;;;;;;;5.23;2.57;;;;;;;21.08;31.05;100437.28;5076030;28;40784;-75
2021/03/28 08:42:03;;;;;;;5.87;2.57;;;;;;;22.12;31.04;100422.31;5077161;28;41823;-76
2021/03/28 08:45:15;;;;;;;7.60;2.80;;;;;;;23.59;28.96;100432.66;5110973;28;41922;-77
2021/03/28 08:48:01;;;;;;;7.77;2.30;;;;;;;25.45;25.90;100455.47;5090234;28;40890;-76
2021/03/28 08:50:40;;;;;;;7.70;2.83;;;;;;;27.35;24.29;100460.19;5093604;28;41478;-74
2021/03/28 08:53:26;;;;;;;7.50;2.80;;;;;;;28.75;22.19;100477.41;5110766;28;42849;-76
2021/03/28 08:56:41;;;;;;;7.03;2.57;;;;;;;30.57;21.17;100471.50;5093626;28;42685;-76
2021/03/28 08:59:36;;;;;;;4.17;1.83;;;;;;;32.26;19.94;100460.47;5073577;28;39039;-79
2021/03/28 09:02:19;;;;;;;5.97;2.38;;;;;;;33.09;17.08;100479.69;5038406;28;40877;-77
2021/03/28 09:05:06;;;;;;;7.63;2.63;;;;;;;31.74;18.49;100467.94;5084982;28;42616;-76
2021/03/28 09:07:42;;;;;;;4.97;2.73;;;;;;;31.42;18.77;100458.22;5111128;28;42974;-75
2021/03/28 09:10:34;;;;;;;5.20;2.80;;;;;;;32.64;17.13;100471.97;5092882;28;39208;-76
2021/03/28 09:13:40;;;;;;;5.77;2.87;;;;;;;33.06;17.38;100458.09;5110150;28;41697;-76
2021/03/28 09:16:15;;;;;;;5.70;2.37;;;;;;;33.59;16.44;100458.38;5091733;28;42657;-76
2021/03/28 09:19:15;;;;;;;6.00;2.50;;;;;;;34.26;15.62;100476.75;5092909;28;42312;-76
2021/03/28 09:21:52;;;;;;;5.63;2.42;;;;;;;34.48;15.57;100463.66;5059036;28;40646;-76
2021/03/28 09:24:42;;;;;;;4.60;2.42;;;;;;;33.99;15.82;100475.03;5111510;28;42490;-77
2021/03/28 09:27:31;;;;;;;5.63;2.53;;;;;;;33.38;16.05;100455.78;5075967;28;43125;-76
2021/03/28 09:30:20;;;;;;;5.07;2.20;;;;;;;32.74;16.49;100454.13;5090876;28;43020;-76
2021/03/28 09:32:57;;;;;;;4.17;2.20;;;;;;;32.53;16.42;100447.78;5111972;28;40057;-75
2021/03/28 09:36:11;;;;;;;4.00;2.30;;;;;;;31.95;16.08;100452.53;5110534;28;41704;-75
2021/03/28 09:39:16;;;;;;;7.50;2.80;;;;;;;31.39;16.33;100457.78;5090538;28;42833;-74
2021/03/28 09:42:14;;;;;;;3.63;2.47;;;;;;;30.80;18.03;100437.75;5089757;28;42288;-76
2021/03/28 09:45:11;;;;;;;4.60;2.47;;;;;;;30.87;17.53;100442.31;5074718;28;41087;-75
2021/03/28 09:47:47;;;;;;;5.60;2.40;;;;;;;30.63;17.75;100434.38;5090131;28;41789;-75
2021/03/28 09:50:24;;;;;;;3.70;2.07;;;;;;;30.32;18.43;100431.72;5093318;28;42025;-75
2021/03/28 09:53:08;;;;;;;4.07;2.20;;;;;;;29.15;18.99;100426.50;5110125;28;42269;-75
2021/03/28 09:55:51;;;;;;;5.33;2.10;;;;;;;28.71;19.30;100421.50;5110120;28;39150;-76
2021/03/28 09:59:05;;;;;;;4.53;2.07;;;;;;;28.28;19.75;100430.13;5109790;28;41782;-76
2021/03/28 10:01:39;;;;;;;4.67;1.70;;;;;;;27.89;19.36;100422.59;5091791;28;42866;-75
2021/03/28 10:04:16;;;;;;;3.57;1.70;;;;;;;28.48;19.00;100413.22;5090068;28;42297;-76
2021/03/28 10:06:53;;;;;;;3.60;1.70;;;;;;;29.14;18.03;100424.81;5092463;28;40472;-76
2021/03/28 10:09:32;;;;;;;3.97;1.50;;;;;;;30.03;17.10;100432.50;5091102;28;43044;-75
2021/03/28 10:12:04;;;;;;;3.20;1.37;;;;;;;30.82;16.78;100422.84;5087999;28;43674;-76
2021/03/28 10:14:52;;;;;;;2.87;1.60;;;;;;;30.87;16.23;100431.38;5072688;28;42291;-76
2021/03/28 10:17:38;;;;;;;4.50;1.50;;;;;;;29.48;16.83;100430.78;5106825;28;40363;-75
2021/03/28 10:20:44;;;;;;;4.37;1.50;;;;;;;27.25;18.47;100424.13;5087393;28;41522;-76
2021/03/28 10:23:25;;;;;;;3.30;1.30;;;;;;;27.01;19.34;100414.00;5102251;27;42305;-75
2021/03/28 10:26:05;;;;;;;4.00;1.90;;;;;;;28.11;18.21;100415.59;5104704;28;42545;-75
2021/03/28 10:29:04;;;;;;;5.23;1.63;;;;;;;30.25;16.40;100426.16;5068606;28;40125;-75
2021/03/28 10:31:47;;;;;;;3.77;1.70;;;;;;;31.64;15.90;100420.81;5084053;28;42324;-76
2021/03/28 10:34:57;;;;;;;4.23;1.77;;;;;;;29.98;16.53;100424.00;5087128;28;42351;-75
2021/03/28 10:38:03;;;;;;;3.27;1.40;;;;;;;29.95;16.74;100425.19;5086991;28;42233;-76
2021/03/28 10:40:42;;;;;;;3.97;1.53;;;;;;;29.25;17.70;100405.31;5087528;28;40679;-75
2021/03/28 10:43:48;;;;;;;5.33;1.80;;;;;;;28.82;18.42;100404.81;5088997;28;41170;-76
2021/03/28 10:46:53;;;;;;;4.70;2.13;;;;;;;27.19;19.56;100403.03;5106564;28;42831;-76
2021/03/28 10:49:54;;;;;;;5.50;2.07;;;;;;;26.51;20.04;100386.69;5071535;28;41298;-75
2021/03/28 10:52:49;;;;;;;4.83;2.07;;;;;;;29.16;18.52;100384.56;5061612;28;38922;-75
2021/03/28 10:55:35;;;;;;;4.73;1.90;;;;;;;30.46;17.13;100386.31;5086711;28;41895;-76
2021/03/28 10:59:04;;;;;;;3.40;1.93;;;;;;;32.91;15.59;100394.25;5100049;28;43448;-76
2021/03/28 11:02:14;;;;;;;4.73;2.23;;;;;;;35.27;13.46;100401.03;5068655;28;42152;-76
2021/03/28 11:04:58;;;;;;;4.40;1.85;;;;;;;36.16;12.60;100413.00;5097748;28;39911;-77
2021/03/28 11:08:08;;;;;;;3.75;2.05;;;;;;;36.85;12.31;100406.44;5085342;28;41256;-76
2021/03/28 11:11:17;;;;;;;6.22;2.03;;;;;;;37.07;13.11;100393.03;5008632;28;41699;-76
2021/03/28 11:14:01;;;;;;;3.55;2.17;;;;;;;37.35;12.85;100391.38;5001806;28;41484;-76
2021/03/28 11:16:42;;;;;;;8.05;2.65;;;;;;;36.52;12.60;100391.03;5097801;28;40378;-75
2021/03/28 11:19:48;;;;;;;3.40;2.20;;;;;;;36.83;12.78;100395.66;5103761;28;42143;-75
2021/03/28 11:22:23;;;;;;;4.85;2.00;;;;;;;37.75;12.52;100393.59;5105335;28;45089;-76
2021/03/28 11:25:12;;;;;;;4.25;2.22;;;;;;;36.75;12.41;100395.06;5068338;28;42024;-75
2021/03/28 11:28:12;;;;;;;5.63;2.15;;;;;;;37.39;12.48;100386.25;5091245;28;40665;-75
2021/03/28 11:30:41;;;;;;;4.32;2.00;;;;;;;38.13;12.00;100389.63;5091555;28;41402;-75
2021/03/28 11:33:19;;;;;;;3.35;2.17;;;;;;;38.01;11.55;100379.34;5107893;28;43650;-75
2021/03/28 11:36:07;;;;;;;5.10;2.22;;;;;;;36.94;12.00;100388.50;5090637;28;42196;-75
2021/03/28 11:39:10;;;;;;;3.57;2.10;;;;;;;34.56;13.59;100384.47;5090182;28;41590;-75
2021/03/28 11:41:47;;;;;;;4.40;2.07;;;;;;;32.62;14.63;100372.53;5074783;28;41784;-75
2021/03/28 11:44:32;;;;;;;6.10;2.00;;;;;;;31.14;15.73;100360.59;5093806;28;42643;-74
2021/03/28 11:47:13;;;;;;;5.53;2.40;;;;;;;30.89;16.55;100357.31;5095288;28;41473;-74
2021/03/28 11:49:55;;;;;;;4.43;2.10;;;;;;;31.36;15.66;100343.16;5094812;28;39323;-75
2021/03/28 11:52:27;;;;;;;4.73;2.43;;;;;;;32.19;14.94;100339.75;5112231;28;41759;-76
2021/03/28 11:55:04;;;;;;;4.80;2.03;;;;;;;33.23;14.25;100347.94;5094013;28;42756;-76
2021/03/28 11:57:33;;;;;;;3.37;1.87;;;;;;;31.58;15.15;100339.38;5078223;28;41602;-75
2021/03/28 12:00:22;;;;;;;3.97;2.13;;;;;;;30.01;16.37;100317.06;5094168;28;39961;-74
2021/03/28 12:03:15;;;;;;;5.33;2.47;;;;;;;31.16;16.06;100336.63;5112457;28;41868;-75
2021/03/28 12:05:52;;;;;;;4.47;2.17;;;;;;;33.59;14.61;100331.97;5112227;28;42520;-74
2021/03/28 12:08:22;;;;;;;5.20;2.30;;;;;;;34.92;13.29;100341.84;5094310;28;41384;-74
2021/03/28 12:10:51;;;;;;;3.90;1.83;;;;;;;34.31;13.65;100331.19;5112625;28;39987;-75
2021/03/28 12:13:48;;;;;;;4.33;2.00;;;;;;;34.18;14.04;100331.16;5077596;28;41585;-76
2021/03/28 12:16:15;;;;;;;3.87;1.90;;;;;;;35.63;13.42;100314.94;5076581;28;42623;-75
2021/03/28 12:18:45;;;;;;;4.00;1.97;;;;;;;37.39;12.64;100323.50;5077831;28;41598;-75
2021/03/28 12:21:31;;;;;;;3.87;2.20;;;;;;;38.40;11.13;100327.19;5094024;28;39642;-76
2021/03/28 12:24:02;;;;;;;3.87;2.33;;;;;;;38.55;10.38;100346.94;5111391;28;41425;-75
2021/03/28 12:26:47;;;;;;;4.27;2.07;;;;;;;38.21;10.34;100353.28;5112093;28;43575;-75
2021/03/28 12:29:32;;;;;;;2.87;2.10;;;;;;;37.47;11.01;100351.88;5094307;28;42111;-75
2021/03/28 12:32:20;;;;;;;4.20;2.10;;;;;;;35.83;12.14;100331.38;5111315;28;40853;-75
2021/03/28 12:35:02;;;;;;;3.13;2.00;;;;;;;36.18;12.19;100317.06;5094532;28;40732;-75
2021/03/28 12:37:30;;;;;;;4.07;2.10;;;;;;;34.35;12.53;100315.94;5110902;27;43081;-75
2021/03/28 12:40:05;;;;;;;3.97;2.20;;;;;;;32.85;13.27;100307.25;5093534;28;42989;-75
2021/03/28 12:42:46;;;;;;;4.10;2.20;;;;;;;33.91;13.11;100305.59;5111922;28;40732;-75
2021/03/28 12:45:38;;;;;;;3.43;1.67;;;;;;;35.08;12.02;100300.03;5112071;28;41641;-75
2021/03/28 12:48:32;;;;;;;3.37;1.93;;;;;;;35.88;12.21;100311.38;5073258;28;41795;-75
2021/03/28 12:51:00;;;;;;;3.20;1.83;;;;;;;35.40;12.31;100308.34;5093442;28;42963;-75
2021/03/28 12:53:32;;;;;;;2.80;1.70;;;;;;;34.90;13.12;100300.75;5093668;28;40342;-75
2021/03/28 12:56:01;;;;;;;3.20;2.10;;;;;;;35.51;12.37;100291.09;5093124;28;42041;-75
2021/03/28 12:58:42;;;;;;;4.10;1.63;;;;;;;36.26;11.88;100291.97;5093932;28;42091;-75
2021/03/28 13:01:26;;;;;;;3.83;1.93;;;;;;;36.82;11.30;100301.97;5112632;28;42026;-76
2021/03/28 13:04:04;;;;;;;3.90;1.90;;;;;;;37.05;10.81;100291.03;5111168;28;40392;-75
2021/03/28 13:06:42;;;;;;;5.13;2.37;;;;;;;37.25;10.76;100285.25;5094365;28;40964;-75
2021/03/28 13:09:23;;;;;;;4.50;2.13;;;;;;;37.19;10.66;100276.00;5111203;28;43759;-76
2021/03/28 13:11:53;;;;;;;4.10;1.90;;;;;;;37.07;11.01;100271.47;5092312;28;42843;-75